sensor_id;sensor_type;location;lat;lon;timestamp;temperature;humidity
31653;DHT22;18261;53.648;9.910;2024-03-02T00:00:08;10.50;92.50
31653;DHT22;18261;53.648;9.910;2024-03-02T00:02:43;10.50;92.30
31653;DHT22;18261;53.648;9.910;2024-03-02T00:05:20;10.50;92.10
31653;DHT22;18261;53.648;9.910;2024-03-02T00:07:57;10.50;92.50
31653;DHT22;18261;53.648;9.910;2024-03-02T00:10:25;10.50;92.90
31653;DHT22;18261;53.648;9.910;2024-03-02T00:12:57;10.50;93.20
31653;DHT22;18261;53.648;9.910;2024-03-02T00:15:46;10.50;93.60
31653;DHT22;18261;53.648;9.910;2024-03-02T00:20:55;10.40;94.40
31653;DHT22;18261;53.648;9.910;2024-03-02T00:23:22;10.50;95.40
31653;DHT22;18261;53.648;9.910;2024-03-02T00:25:51;10.40;95.50
31653;DHT22;18261;53.648;9.910;2024-03-02T00:28:26;10.40;95.70
31653;DHT22;18261;53.648;9.910;2024-03-02T00:31:01;10.40;96.50
31653;DHT22;18261;53.648;9.910;2024-03-02T00:36:03;10.30;96.90
31653;DHT22;18261;53.648;9.910;2024-03-02T00:38:33;10.30;97.00
31653;DHT22;18261;53.648;9.910;2024-03-02T00:41:04;10.40;96.70
31653;DHT22;18261;53.648;9.910;2024-03-02T00:43:45;10.40;96.90
31653;DHT22;18261;53.648;9.910;2024-03-02T00:46:18;10.40;96.70
31653;DHT22;18261;53.648;9.910;2024-03-02T00:48:51;10.40;96.80
31653;DHT22;18261;53.648;9.910;2024-03-02T00:51:16;10.40;97.30
31653;DHT22;18261;53.648;9.910;2024-03-02T00:53:42;10.40;97.30
31653;DHT22;18261;53.648;9.910;2024-03-02T00:56:10;10.30;97.80
31653;DHT22;18261;53.648;9.910;2024-03-02T00:58:36;10.30;98.40
31653;DHT22;18261;53.648;9.910;2024-03-02T01:01:02;10.30;98.70
31653;DHT22;18261;53.648;9.910;2024-03-02T01:03:27;10.30;98.90
31653;DHT22;18261;53.648;9.910;2024-03-02T01:05:53;10.30;99.10
31653;DHT22;18261;53.648;9.910;2024-03-02T01:08:18;10.30;99.70
31653;DHT22;18261;53.648;9.910;2024-03-02T01:10:44;10.30;99.90
31653;DHT22;18261;53.648;9.910;2024-03-02T01:13:10;10.40;99.90
31653;DHT22;18261;53.648;9.910;2024-03-02T01:15:35;10.30;99.90
31653;DHT22;18261;53.648;9.910;2024-03-02T01:18:01;10.30;99.90
31653;DHT22;18261;53.648;9.910;2024-03-02T01:20:26;10.30;99.90
31653;DHT22;18261;53.648;9.910;2024-03-02T01:22:52;10.30;99.90
31653;DHT22;18261;53.648;9.910;2024-03-02T01:25:18;10.30;99.90
31653;DHT22;18261;53.648;9.910;2024-03-02T01:27:44;10.30;99.90
31653;DHT22;18261;53.648;9.910;2024-03-02T01:30:10;10.20;99.90
31653;DHT22;18261;53.648;9.910;2024-03-02T01:32:38;10.20;99.90
31653;DHT22;18261;53.648;9.910;2024-03-02T01:35:04;10.20;99.90
31653;DHT22;18261;53.648;9.910;2024-03-02T01:37:30;10.20;99.90
31653;DHT22;18261;53.648;9.910;2024-03-02T01:39:55;10.20;99.90
31653;DHT22;18261;53.648;9.910;2024-03-02T01:42:21;10.20;99.90
31653;DHT22;18261;53.648;9.910;2024-03-02T01:44:47;10.20;99.90
31653;DHT22;18261;53.648;9.910;2024-03-02T01:47:13;10.10;99.90
31653;DHT22;18261;53.648;9.910;2024-03-02T01:49:39;10.10;99.90
31653;DHT22;18261;53.648;9.910;2024-03-02T01:52:06;10.10;99.90
31653;DHT22;18261;53.648;9.910;2024-03-02T01:54:32;10.10;99.90
31653;DHT22;18261;53.648;9.910;2024-03-02T01:56:58;10.10;99.90
31653;DHT22;18261;53.648;9.910;2024-03-02T01:59:24;10.10;99.90
31653;DHT22;18261;53.648;9.910;2024-03-02T02:01:50;10.10;99.90
31653;DHT22;18261;53.648;9.910;2024-03-02T02:04:15;10.00;99.90
31653;DHT22;18261;53.648;9.910;2024-03-02T02:06:41;10.10;99.90
31653;DHT22;18261;53.648;9.910;2024-03-02T02:09:09;10.00;99.90
31653;DHT22;18261;53.648;9.910;2024-03-02T02:11:34;10.00;99.90
31653;DHT22;18261;53.648;9.910;2024-03-02T02:14:00;10.00;99.90
31653;DHT22;18261;53.648;9.910;2024-03-02T02:16:25;10.00;99.90
31653;DHT22;18261;53.648;9.910;2024-03-02T02:18:51;10.00;99.90
31653;DHT22;18261;53.648;9.910;2024-03-02T02:21:17;9.90;99.90
31653;DHT22;18261;53.648;9.910;2024-03-02T02:23:43;9.90;99.90
31653;DHT22;18261;53.648;9.910;2024-03-02T02:26:12;9.90;99.90
31653;DHT22;18261;53.648;9.910;2024-03-02T02:28:37;9.90;99.90
31653;DHT22;18261;53.648;9.910;2024-03-02T02:31:03;9.90;99.90
31653;DHT22;18261;53.648;9.910;2024-03-02T02:33:29;9.80;99.90
31653;DHT22;18261;53.648;9.910;2024-03-02T02:35:55;9.80;99.90
31653;DHT22;18261;53.648;9.910;2024-03-02T02:38:20;9.80;99.90
31653;DHT22;18261;53.648;9.910;2024-03-02T02:40:46;9.80;99.90
31653;DHT22;18261;53.648;9.910;2024-03-02T02:43:12;9.80;99.90
31653;DHT22;18261;53.648;9.910;2024-03-02T02:45:37;9.80;99.90
31653;DHT22;18261;53.648;9.910;2024-03-02T02:48:03;9.70;99.90
31653;DHT22;18261;53.648;9.910;2024-03-02T02:50:29;9.70;99.90
31653;DHT22;18261;53.648;9.910;2024-03-02T02:52:55;9.70;99.90
31653;DHT22;18261;53.648;9.910;2024-03-02T02:55:20;9.70;99.90
31653;DHT22;18261;53.648;9.910;2024-03-02T02:57:46;9.70;99.90
31653;DHT22;18261;53.648;9.910;2024-03-02T03:00:14;9.70;99.90
31653;DHT22;18261;53.648;9.910;2024-03-02T03:02:41;9.70;99.90
31653;DHT22;18261;53.648;9.910;2024-03-02T03:05:08;9.60;99.90
31653;DHT22;18261;53.648;9.910;2024-03-02T03:07:34;9.60;99.90
31653;DHT22;18261;53.648;9.910;2024-03-02T03:10:00;9.50;99.90
31653;DHT22;18261;53.648;9.910;2024-03-02T03:12:26;9.60;99.90
31653;DHT22;18261;53.648;9.910;2024-03-02T03:14:52;9.60;99.90
31653;DHT22;18261;53.648;9.910;2024-03-02T03:17:17;9.60;99.90
31653;DHT22;18261;53.648;9.910;2024-03-02T03:19:43;9.60;99.90
31653;DHT22;18261;53.648;9.910;2024-03-02T03:22:09;9.60;99.90
31653;DHT22;18261;53.648;9.910;2024-03-02T03:24:34;9.60;99.90
31653;DHT22;18261;53.648;9.910;2024-03-02T03:27:00;9.50;99.90
31653;DHT22;18261;53.648;9.910;2024-03-02T03:29:26;9.50;99.90
31653;DHT22;18261;53.648;9.910;2024-03-02T03:31:52;9.50;99.90
31653;DHT22;18261;53.648;9.910;2024-03-02T03:34:17;9.50;99.90
31653;DHT22;18261;53.648;9.910;2024-03-02T03:36:43;9.50;99.90
31653;DHT22;18261;53.648;9.910;2024-03-02T03:39:09;9.50;99.90
31653;DHT22;18261;53.648;9.910;2024-03-02T03:41:34;9.50;99.90
31653;DHT22;18261;53.648;9.910;2024-03-02T03:44:00;9.50;99.90
31653;DHT22;18261;53.648;9.910;2024-03-02T03:46:25;9.50;99.90
31653;DHT22;18261;53.648;9.910;2024-03-02T03:48:51;9.50;99.90
31653;DHT22;18261;53.648;9.910;2024-03-02T03:51:16;9.50;99.90
31653;DHT22;18261;53.648;9.910;2024-03-02T03:53:42;9.40;99.90
31653;DHT22;18261;53.648;9.910;2024-03-02T03:56:11;9.40;99.90
31653;DHT22;18261;53.648;9.910;2024-03-02T03:58:36;9.40;99.90
31653;DHT22;18261;53.648;9.910;2024-03-02T04:01:02;9.50;99.90
31653;DHT22;18261;53.648;9.910;2024-03-02T04:03:27;9.40;99.90
31653;DHT22;18261;53.648;9.910;2024-03-02T04:05:53;9.40;99.90
31653;DHT22;18261;53.648;9.910;2024-03-02T04:08:18;9.40;99.90
31653;DHT22;18261;53.648;9.910;2024-03-02T04:10:44;9.40;99.90
31653;DHT22;18261;53.648;9.910;2024-03-02T04:13:09;9.40;99.90
31653;DHT22;18261;53.648;9.910;2024-03-02T04:15:35;9.40;99.90
31653;DHT22;18261;53.648;9.910;2024-03-02T04:18:01;9.40;99.90
31653;DHT22;18261;53.648;9.910;2024-03-02T04:20:27;9.40;99.90
31653;DHT22;18261;53.648;9.910;2024-03-02T04:22:52;9.40;99.90
31653;DHT22;18261;53.648;9.910;2024-03-02T04:25:18;9.40;99.90
31653;DHT22;18261;53.648;9.910;2024-03-02T04:27:45;9.40;99.90
31653;DHT22;18261;53.648;9.910;2024-03-02T04:30:11;9.40;99.90
31653;DHT22;18261;53.648;9.910;2024-03-02T04:32:36;9.40;99.90
31653;DHT22;18261;53.648;9.910;2024-03-02T04:35:02;9.30;99.90
31653;DHT22;18261;53.648;9.910;2024-03-02T04:37:27;9.30;99.90
31653;DHT22;18261;53.648;9.910;2024-03-02T04:39:53;9.30;99.90
31653;DHT22;18261;53.648;9.910;2024-03-02T04:42:19;9.40;99.90
31653;DHT22;18261;53.648;9.910;2024-03-02T04:44:44;9.40;99.90
31653;DHT22;18261;53.648;9.910;2024-03-02T04:47:10;9.30;99.90
31653;DHT22;18261;53.648;9.910;2024-03-02T04:49:36;9.30;99.90
31653;DHT22;18261;53.648;9.910;2024-03-02T04:52:02;9.40;99.90
31653;DHT22;18261;53.648;9.910;2024-03-02T04:54:28;9.40;99.90
31653;DHT22;18261;53.648;9.910;2024-03-02T04:56:53;9.40;99.90
31653;DHT22;18261;53.648;9.910;2024-03-02T04:59:19;9.40;99.90
31653;DHT22;18261;53.648;9.910;2024-03-02T05:01:45;9.40;99.90
31653;DHT22;18261;53.648;9.910;2024-03-02T05:04:12;9.40;99.90
31653;DHT22;18261;53.648;9.910;2024-03-02T05:06:41;9.40;99.90
31653;DHT22;18261;53.648;9.910;2024-03-02T05:09:10;9.40;99.90
31653;DHT22;18261;53.648;9.910;2024-03-02T05:11:35;9.30;99.90
31653;DHT22;18261;53.648;9.910;2024-03-02T05:14:04;9.50;99.90
31653;DHT22;18261;53.648;9.910;2024-03-02T05:16:37;9.40;99.90
31653;DHT22;18261;53.648;9.910;2024-03-02T05:19:17;9.30;99.90
31653;DHT22;18261;53.648;9.910;2024-03-02T05:21:42;9.40;99.90
31653;DHT22;18261;53.648;9.910;2024-03-02T05:24:09;9.40;99.90
31653;DHT22;18261;53.648;9.910;2024-03-02T05:26:34;9.30;99.90
31653;DHT22;18261;53.648;9.910;2024-03-02T05:29:00;9.40;99.90
31653;DHT22;18261;53.648;9.910;2024-03-02T05:31:25;9.40;99.90
31653;DHT22;18261;53.648;9.910;2024-03-02T05:33:51;9.40;99.90
31653;DHT22;18261;53.648;9.910;2024-03-02T05:36:17;9.40;99.90
31653;DHT22;18261;53.648;9.910;2024-03-02T05:38:43;9.40;99.90
31653;DHT22;18261;53.648;9.910;2024-03-02T05:41:09;9.40;99.90
31653;DHT22;18261;53.648;9.910;2024-03-02T05:43:34;9.40;99.90
31653;DHT22;18261;53.648;9.910;2024-03-02T05:46:00;9.40;99.90
31653;DHT22;18261;53.648;9.910;2024-03-02T05:48:25;9.30;99.90
31653;DHT22;18261;53.648;9.910;2024-03-02T05:50:51;9.30;99.90
31653;DHT22;18261;53.648;9.910;2024-03-02T05:53:16;9.30;99.90
31653;DHT22;18261;53.648;9.910;2024-03-02T05:55:42;9.30;99.90
31653;DHT22;18261;53.648;9.910;2024-03-02T05:58:10;9.30;99.90
31653;DHT22;18261;53.648;9.910;2024-03-02T06:01:02;9.30;99.90
31653;DHT22;18261;53.648;9.910;2024-03-02T06:03:28;9.30;99.90
31653;DHT22;18261;53.648;9.910;2024-03-02T06:05:54;9.30;99.90
31653;DHT22;18261;53.648;9.910;2024-03-02T06:08:20;9.20;99.90
31653;DHT22;18261;53.648;9.910;2024-03-02T06:10:46;9.20;99.90
31653;DHT22;18261;53.648;9.910;2024-03-02T06:13:11;9.20;99.90
31653;DHT22;18261;53.648;9.910;2024-03-02T06:15:37;9.20;99.90
31653;DHT22;18261;53.648;9.910;2024-03-02T06:18:03;9.10;99.90
31653;DHT22;18261;53.648;9.910;2024-03-02T06:20:28;9.20;99.90
31653;DHT22;18261;53.648;9.910;2024-03-02T06:22:56;9.20;99.90
31653;DHT22;18261;53.648;9.910;2024-03-02T06:25:22;9.10;99.90
31653;DHT22;18261;53.648;9.910;2024-03-02T06:27:47;9.10;99.90
31653;DHT22;18261;53.648;9.910;2024-03-02T06:30:13;9.10;99.90
31653;DHT22;18261;53.648;9.910;2024-03-02T06:32:39;9.10;99.90
31653;DHT22;18261;53.648;9.910;2024-03-02T06:35:04;9.20;99.90
31653;DHT22;18261;53.648;9.910;2024-03-02T06:37:32;9.10;99.90
31653;DHT22;18261;53.648;9.910;2024-03-02T06:39:58;9.20;99.90
31653;DHT22;18261;53.648;9.910;2024-03-02T06:42:23;9.10;99.90
31653;DHT22;18261;53.648;9.910;2024-03-02T06:44:49;9.10;99.90
31653;DHT22;18261;53.648;9.910;2024-03-02T06:47:16;9.00;99.90
31653;DHT22;18261;53.648;9.910;2024-03-02T06:49:42;9.20;99.90
31653;DHT22;18261;53.648;9.910;2024-03-02T06:52:08;9.10;99.90
31653;DHT22;18261;53.648;9.910;2024-03-02T06:54:34;9.20;99.90
31653;DHT22;18261;53.648;9.910;2024-03-02T06:57:00;9.10;99.90
31653;DHT22;18261;53.648;9.910;2024-03-02T06:59:26;9.10;99.90
31653;DHT22;18261;53.648;9.910;2024-03-02T07:01:51;9.20;99.90
31653;DHT22;18261;53.648;9.910;2024-03-02T07:04:17;9.20;99.90
31653;DHT22;18261;53.648;9.910;2024-03-02T07:06:42;9.20;99.90
31653;DHT22;18261;53.648;9.910;2024-03-02T07:09:08;9.20;99.90
31653;DHT22;18261;53.648;9.910;2024-03-02T07:11:36;9.20;99.90
31653;DHT22;18261;53.648;9.910;2024-03-02T07:14:02;9.30;99.90
31653;DHT22;18261;53.648;9.910;2024-03-02T07:16:27;9.40;99.90
31653;DHT22;18261;53.648;9.910;2024-03-02T07:18:55;9.40;99.90
31653;DHT22;18261;53.648;9.910;2024-03-02T07:21:22;9.40;99.90
31653;DHT22;18261;53.648;9.910;2024-03-02T07:23:48;9.50;99.90
31653;DHT22;18261;53.648;9.910;2024-03-02T07:26:14;9.60;99.90
31653;DHT22;18261;53.648;9.910;2024-03-02T07:28:49;9.60;99.90
31653;DHT22;18261;53.648;9.910;2024-03-02T07:31:14;9.60;99.90
31653;DHT22;18261;53.648;9.910;2024-03-02T07:33:40;9.70;99.90
31653;DHT22;18261;53.648;9.910;2024-03-02T07:36:07;9.70;99.90
31653;DHT22;18261;53.648;9.910;2024-03-02T07:38:33;9.70;99.90
31653;DHT22;18261;53.648;9.910;2024-03-02T07:41:01;9.70;99.90
31653;DHT22;18261;53.648;9.910;2024-03-02T07:43:26;9.70;99.90
31653;DHT22;18261;53.648;9.910;2024-03-02T07:45:58;9.80;99.90
31653;DHT22;18261;53.648;9.910;2024-03-02T07:48:28;9.80;99.90
31653;DHT22;18261;53.648;9.910;2024-03-02T07:50:55;9.90;99.90
31653;DHT22;18261;53.648;9.910;2024-03-02T07:53:21;9.80;99.90
31653;DHT22;18261;53.648;9.910;2024-03-02T07:55:46;9.90;99.90
31653;DHT22;18261;53.648;9.910;2024-03-02T07:58:12;10.00;99.90
31653;DHT22;18261;53.648;9.910;2024-03-02T08:00:41;9.90;99.90
31653;DHT22;18261;53.648;9.910;2024-03-02T08:03:07;10.00;99.90
31653;DHT22;18261;53.648;9.910;2024-03-02T08:05:36;10.00;99.90
31653;DHT22;18261;53.648;9.910;2024-03-02T08:08:02;10.00;99.90
31653;DHT22;18261;53.648;9.910;2024-03-02T08:10:28;10.10;99.80
31653;DHT22;18261;53.648;9.910;2024-03-02T08:12:53;10.10;99.20
31653;DHT22;18261;53.648;9.910;2024-03-02T08:15:19;10.20;97.60
31653;DHT22;18261;53.648;9.910;2024-03-02T08:17:44;10.10;96.60
31653;DHT22;18261;53.648;9.910;2024-03-02T08:20:13;10.30;96.70
31653;DHT22;18261;53.648;9.910;2024-03-02T08:22:40;10.30;95.80
31653;DHT22;18261;53.648;9.910;2024-03-02T08:25:08;10.30;95.50
31653;DHT22;18261;53.648;9.910;2024-03-02T08:27:35;10.30;94.70
31653;DHT22;18261;53.648;9.910;2024-03-02T08:30:00;10.40;94.80
31653;DHT22;18261;53.648;9.910;2024-03-02T08:32:26;10.40;95.10
31653;DHT22;18261;53.648;9.910;2024-03-02T08:34:53;10.40;94.70
31653;DHT22;18261;53.648;9.910;2024-03-02T08:37:18;10.40;95.10
31653;DHT22;18261;53.648;9.910;2024-03-02T08:39:45;10.50;93.80
31653;DHT22;18261;53.648;9.910;2024-03-02T08:42:10;10.70;92.50
31653;DHT22;18261;53.648;9.910;2024-03-02T08:44:36;10.60;90.70
31653;DHT22;18261;53.648;9.910;2024-03-02T08:47:02;10.70;91.60
31653;DHT22;18261;53.648;9.910;2024-03-02T08:49:29;10.80;90.10
31653;DHT22;18261;53.648;9.910;2024-03-02T08:51:56;10.90;85.70
31653;DHT22;18261;53.648;9.910;2024-03-02T08:54:22;11.20;83.80
31653;DHT22;18261;53.648;9.910;2024-03-02T08:59:14;11.70;84.10
31653;DHT22;18261;53.648;9.910;2024-03-02T09:01:40;12.40;40.10
31653;DHT22;18261;53.648;9.910;2024-03-02T09:04:07;13.00;23.90
31653;DHT22;18261;53.648;9.910;2024-03-02T09:06:34;13.60;1.00
31653;DHT22;18261;53.648;9.910;2024-03-02T09:09:00;14.20;1.00
31653;DHT22;18261;53.648;9.910;2024-03-02T09:11:26;14.80;1.00
31653;DHT22;18261;53.648;9.910;2024-03-02T09:13:52;15.30;1.00
31653;DHT22;18261;53.648;9.910;2024-03-02T09:16:18;15.40;99.90
31653;DHT22;18261;53.648;9.910;2024-03-02T09:18:44;15.50;99.90
31653;DHT22;18261;53.648;9.910;2024-03-02T09:21:10;15.50;99.90
31653;DHT22;18261;53.648;9.910;2024-03-02T09:23:36;15.40;99.90
31653;DHT22;18261;53.648;9.910;2024-03-02T09:26:01;15.40;94.10
31653;DHT22;18261;53.648;9.910;2024-03-02T09:28:28;15.80;22.40
31653;DHT22;18261;53.648;9.910;2024-03-02T09:30:54;16.00;99.90
31653;DHT22;18261;53.648;9.910;2024-03-02T09:33:20;16.20;1.00
31653;DHT22;18261;53.648;9.910;2024-03-02T09:35:45;16.40;1.00
31653;DHT22;18261;53.648;9.910;2024-03-02T09:38:11;16.50;99.90
31653;DHT22;18261;53.648;9.910;2024-03-02T09:40:37;16.40;1.00
31653;DHT22;18261;53.648;9.910;2024-03-02T09:43:03;16.80;1.00
31653;DHT22;18261;53.648;9.910;2024-03-02T09:47:57;17.60;29.20
31653;DHT22;18261;53.648;9.910;2024-03-02T09:50:23;18.00;1.00
31653;DHT22;18261;53.648;9.910;2024-03-02T09:52:49;18.40;1.00
31653;DHT22;18261;53.648;9.910;2024-03-02T09:55:16;18.80;99.90
31653;DHT22;18261;53.648;9.910;2024-03-02T09:57:43;19.10;99.90
31653;DHT22;18261;53.648;9.910;2024-03-02T10:00:09;19.40;90.00
31653;DHT22;18261;53.648;9.910;2024-03-02T10:02:41;19.50;1.00
31653;DHT22;18261;53.648;9.910;2024-03-02T10:05:13;19.60;99.90
31653;DHT22;18261;53.648;9.910;2024-03-02T10:10:36;20.20;1.00
31653;DHT22;18261;53.648;9.910;2024-03-02T10:13:06;20.30;1.00
31653;DHT22;18261;53.648;9.910;2024-03-02T10:15:33;20.20;1.00
31653;DHT22;18261;53.648;9.910;2024-03-02T10:17:58;20.00;1.00
31653;DHT22;18261;53.648;9.910;2024-03-02T10:20:25;20.10;1.00
31653;DHT22;18261;53.648;9.910;2024-03-02T10:22:51;20.10;1.00
31653;DHT22;18261;53.648;9.910;2024-03-02T10:25:33;20.20;1.00
31653;DHT22;18261;53.648;9.910;2024-03-02T10:27:59;20.10;1.00
31653;DHT22;18261;53.648;9.910;2024-03-02T10:30:33;19.40;1.00
31653;DHT22;18261;53.648;9.910;2024-03-02T10:33:03;18.80;99.90
31653;DHT22;18261;53.648;9.910;2024-03-02T10:35:30;18.20;99.90
31653;DHT22;18261;53.648;9.910;2024-03-02T10:37:59;17.90;99.90
31653;DHT22;18261;53.648;9.910;2024-03-02T10:40:34;17.70;99.90
31653;DHT22;18261;53.648;9.910;2024-03-02T10:43:01;17.70;52.20
31653;DHT22;18261;53.648;9.910;2024-03-02T10:45:57;17.40;1.00
31653;DHT22;18261;53.648;9.910;2024-03-02T10:48:25;17.30;1.00
31653;DHT22;18261;53.648;9.910;2024-03-02T10:50:51;17.30;1.00
31653;DHT22;18261;53.648;9.910;2024-03-02T10:53:16;16.90;1.00
31653;DHT22;18261;53.648;9.910;2024-03-02T10:55:42;16.90;1.00
31653;DHT22;18261;53.648;9.910;2024-03-02T10:58:11;16.80;1.00
31653;DHT22;18261;53.648;9.910;2024-03-02T11:00:45;16.50;1.00
31653;DHT22;18261;53.648;9.910;2024-03-02T11:03:15;16.40;99.90
31653;DHT22;18261;53.648;9.910;2024-03-02T11:05:44;16.40;99.90
31653;DHT22;18261;53.648;9.910;2024-03-02T11:08:14;16.30;99.90
31653;DHT22;18261;53.648;9.910;2024-03-02T11:10:50;16.20;95.20
31653;DHT22;18261;53.648;9.910;2024-03-02T11:13:32;16.10;99.90
31653;DHT22;18261;53.648;9.910;2024-03-02T11:16:37;16.00;1.00
31653;DHT22;18261;53.648;9.910;2024-03-02T11:19:10;15.90;99.90
31653;DHT22;18261;53.648;9.910;2024-03-02T11:21:37;16.00;99.90
31653;DHT22;18261;53.648;9.910;2024-03-02T11:26:51;16.30;1.00
31653;DHT22;18261;53.648;9.910;2024-03-02T11:32:02;16.20;99.90
31653;DHT22;18261;53.648;9.910;2024-03-02T11:34:29;16.10;1.00
31653;DHT22;18261;53.648;9.910;2024-03-02T11:36:57;15.90;1.00
31653;DHT22;18261;53.648;9.910;2024-03-02T11:39:25;15.80;99.90
31653;DHT22;18261;53.648;9.910;2024-03-02T11:41:53;15.80;99.90
31653;DHT22;18261;53.648;9.910;2024-03-02T11:44:19;15.90;99.90
31653;DHT22;18261;53.648;9.910;2024-03-02T11:46:46;15.70;99.90
31653;DHT22;18261;53.648;9.910;2024-03-02T11:49:15;15.80;99.90
31653;DHT22;18261;53.648;9.910;2024-03-02T11:51:59;15.70;99.90
31653;DHT22;18261;53.648;9.910;2024-03-02T11:54:26;15.70;99.90
31653;DHT22;18261;53.648;9.910;2024-03-02T11:56:54;15.70;99.90
31653;DHT22;18261;53.648;9.910;2024-03-02T11:59:20;15.50;99.90
31653;DHT22;18261;53.648;9.910;2024-03-02T12:01:47;15.40;1.00
31653;DHT22;18261;53.648;9.910;2024-03-02T12:04:13;15.30;1.00
31653;DHT22;18261;53.648;9.910;2024-03-02T12:06:39;15.30;1.00
31653;DHT22;18261;53.648;9.910;2024-03-02T12:09:05;15.30;1.00
31653;DHT22;18261;53.648;9.910;2024-03-02T12:11:30;15.30;1.00
31653;DHT22;18261;53.648;9.910;2024-03-02T12:13:56;15.30;1.00
31653;DHT22;18261;53.648;9.910;2024-03-02T12:16:26;15.30;1.00
31653;DHT22;18261;53.648;9.910;2024-03-02T12:18:52;15.30;1.00
31653;DHT22;18261;53.648;9.910;2024-03-02T12:21:17;15.40;99.90
31653;DHT22;18261;53.648;9.910;2024-03-02T12:23:43;15.40;99.90
31653;DHT22;18261;53.648;9.910;2024-03-02T12:26:09;15.40;99.90
31653;DHT22;18261;53.648;9.910;2024-03-02T12:28:35;15.50;1.00
31653;DHT22;18261;53.648;9.910;2024-03-02T12:31:00;15.50;99.90
31653;DHT22;18261;53.648;9.910;2024-03-02T12:33:26;15.40;99.90
31653;DHT22;18261;53.648;9.910;2024-03-02T12:35:52;15.40;99.90
31653;DHT22;18261;53.648;9.910;2024-03-02T12:38:18;15.40;99.90
31653;DHT22;18261;53.648;9.910;2024-03-02T12:40:47;15.40;99.90
31653;DHT22;18261;53.648;9.910;2024-03-02T12:43:12;15.30;99.90
31653;DHT22;18261;53.648;9.910;2024-03-02T12:45:38;15.30;99.90
31653;DHT22;18261;53.648;9.910;2024-03-02T12:48:04;15.20;99.90
31653;DHT22;18261;53.648;9.910;2024-03-02T12:50:30;15.10;99.90
31653;DHT22;18261;53.648;9.910;2024-03-02T12:52:56;15.10;99.90
31653;DHT22;18261;53.648;9.910;2024-03-02T12:55:23;15.10;99.90
31653;DHT22;18261;53.648;9.910;2024-03-02T12:57:53;15.10;99.90
31653;DHT22;18261;53.648;9.910;2024-03-02T13:00:19;15.00;99.90
31653;DHT22;18261;53.648;9.910;2024-03-02T13:03:24;15.10;99.90
31653;DHT22;18261;53.648;9.910;2024-03-02T13:05:51;15.10;63.60
31653;DHT22;18261;53.648;9.910;2024-03-02T13:08:17;15.10;99.90
31653;DHT22;18261;53.648;9.910;2024-03-02T13:10:42;15.10;38.40
31653;DHT22;18261;53.648;9.910;2024-03-02T13:13:08;15.00;71.70
31653;DHT22;18261;53.648;9.910;2024-03-02T13:15:34;15.00;84.20
31653;DHT22;18261;53.648;9.910;2024-03-02T13:18:00;14.90;99.90
31653;DHT22;18261;53.648;9.910;2024-03-02T13:20:33;14.90;99.90
31653;DHT22;18261;53.648;9.910;2024-03-02T13:22:58;14.90;99.90
31653;DHT22;18261;53.648;9.910;2024-03-02T13:25:24;15.00;99.90
31653;DHT22;18261;53.648;9.910;2024-03-02T13:27:49;15.20;46.00
31653;DHT22;18261;53.648;9.910;2024-03-02T13:30:16;15.50;1.00
31653;DHT22;18261;53.648;9.910;2024-03-02T13:32:42;16.10;1.00
31653;DHT22;18261;53.648;9.910;2024-03-02T13:35:08;16.80;84.00
31653;DHT22;18261;53.648;9.910;2024-03-02T13:37:39;17.40;1.00
31653;DHT22;18261;53.648;9.910;2024-03-02T13:40:05;18.20;99.90
31653;DHT22;18261;53.648;9.910;2024-03-02T13:44:57;19.40;99.90
31653;DHT22;18261;53.648;9.910;2024-03-02T13:47:23;19.70;1.00
31653;DHT22;18261;53.648;9.910;2024-03-02T13:49:48;20.10;99.90
31653;DHT22;18261;53.648;9.910;2024-03-02T13:52:15;20.50;99.90
31653;DHT22;18261;53.648;9.910;2024-03-02T13:54:43;20.70;99.90
31653;DHT22;18261;53.648;9.910;2024-03-02T13:57:10;20.60;50.60
31653;DHT22;18261;53.648;9.910;2024-03-02T13:59:36;20.40;55.40
31653;DHT22;18261;53.648;9.910;2024-03-02T14:02:03;20.30;93.70
31653;DHT22;18261;53.648;9.910;2024-03-02T14:04:34;20.00;85.40
31653;DHT22;18261;53.648;9.910;2024-03-02T14:07:01;19.80;99.90
31653;DHT22;18261;53.648;9.910;2024-03-02T14:09:27;19.50;99.90
31653;DHT22;18261;53.648;9.910;2024-03-02T14:11:53;19.30;99.90
31653;DHT22;18261;53.648;9.910;2024-03-02T14:14:19;19.10;1.00
31653;DHT22;18261;53.648;9.910;2024-03-02T14:16:45;19.10;1.00
31653;DHT22;18261;53.648;9.910;2024-03-02T14:19:11;19.00;1.00
31653;DHT22;18261;53.648;9.910;2024-03-02T14:21:39;18.90;4.30
31653;DHT22;18261;53.648;9.910;2024-03-02T14:24:04;18.90;38.40
31653;DHT22;18261;53.648;9.910;2024-03-02T14:26:30;18.90;1.00
31653;DHT22;18261;53.648;9.910;2024-03-02T14:28:56;18.70;99.90
31653;DHT22;18261;53.648;9.910;2024-03-02T14:31:22;18.80;71.20
31653;DHT22;18261;53.648;9.910;2024-03-02T14:33:47;18.70;99.80
31653;DHT22;18261;53.648;9.910;2024-03-02T14:36:13;18.60;99.90
31653;DHT22;18261;53.648;9.910;2024-03-02T14:38:39;18.50;99.90
31653;DHT22;18261;53.648;9.910;2024-03-02T14:41:05;18.20;1.00
31653;DHT22;18261;53.648;9.910;2024-03-02T14:43:30;18.20;1.00
31653;DHT22;18261;53.648;9.910;2024-03-02T14:45:56;18.20;99.90
31653;DHT22;18261;53.648;9.910;2024-03-02T14:48:22;18.30;50.10
31653;DHT22;18261;53.648;9.910;2024-03-02T14:50:48;18.30;1.00
31653;DHT22;18261;53.648;9.910;2024-03-02T14:53:14;18.20;16.20
31653;DHT22;18261;53.648;9.910;2024-03-02T14:55:39;18.00;99.90
31653;DHT22;18261;53.648;9.910;2024-03-02T14:58:05;17.90;1.00
31653;DHT22;18261;53.648;9.910;2024-03-02T15:00:30;17.60;99.90
31653;DHT22;18261;53.648;9.910;2024-03-02T15:02:56;17.60;1.00
31653;DHT22;18261;53.648;9.910;2024-03-02T15:05:22;17.50;2.90
31653;DHT22;18261;53.648;9.910;2024-03-02T15:07:48;17.50;1.00
31653;DHT22;18261;53.648;9.910;2024-03-02T15:10:13;17.60;1.00
31653;DHT22;18261;53.648;9.910;2024-03-02T15:12:39;17.60;99.90
31653;DHT22;18261;53.648;9.910;2024-03-02T15:15:05;17.80;1.00
31653;DHT22;18261;53.648;9.910;2024-03-02T15:17:31;18.00;1.00
31653;DHT22;18261;53.648;9.910;2024-03-02T15:19:56;18.10;1.00
31653;DHT22;18261;53.648;9.910;2024-03-02T15:22:22;18.10;99.90
31653;DHT22;18261;53.648;9.910;2024-03-02T15:24:47;18.10;99.90
31653;DHT22;18261;53.648;9.910;2024-03-02T15:27:13;18.00;99.90
31653;DHT22;18261;53.648;9.910;2024-03-02T15:29:39;17.90;99.90
31653;DHT22;18261;53.648;9.910;2024-03-02T15:32:05;17.80;1.00
31653;DHT22;18261;53.648;9.910;2024-03-02T15:34:32;17.80;1.00
31653;DHT22;18261;53.648;9.910;2024-03-02T15:36:59;17.80;1.00
31653;DHT22;18261;53.648;9.910;2024-03-02T15:39:25;17.80;1.00
31653;DHT22;18261;53.648;9.910;2024-03-02T15:41:51;17.60;99.90
31653;DHT22;18261;53.648;9.910;2024-03-02T15:44:17;17.50;1.00
31653;DHT22;18261;53.648;9.910;2024-03-02T15:46:43;17.40;99.90
31653;DHT22;18261;53.648;9.910;2024-03-02T15:49:09;17.20;1.00
31653;DHT22;18261;53.648;9.910;2024-03-02T15:51:35;17.20;6.20
31653;DHT22;18261;53.648;9.910;2024-03-02T15:54:09;16.90;1.00
31653;DHT22;18261;53.648;9.910;2024-03-02T15:56:34;16.60;1.00
31653;DHT22;18261;53.648;9.910;2024-03-02T15:59:00;16.50;99.90